Time;durP1;ratioP1;P1;durP2;ratioP2;P2;SDS_P1;SDS_P2;PMS_P1;PMS_P2;Temp;Humidity;BMP_temperature;BMP_pressure;BME280_temperature;BME280_humidity;BME280_pressure;Samples;Min_cycle;Max_cycle;Signal;HPM_P1;HPM_P2
2021/12/25 00:00:59;;;;;;;2.78;0.70;;;;;;;;;;5034135;28;20022;-56
2021/12/25 00:03:25;;;;;;;0.73;0.50;;;;;;;;;;5022929;28;20096;-53
2021/12/25 00:05:54;;;;;;;1.30;0.68;;;;;;;;;;5032132;28;20056;-55
2021/12/25 00:08:21;;;;;;;0.95;0.60;;;;;;;;;;5029165;28;20116;-52
2021/12/25 00:10:47;;;;;;;0.73;0.40;;;;;;;;;;5032074;28;20390;-50
2021/12/25 00:13:13;;;;;;;0.73;0.63;;;;;;;;;;5032558;28;20064;-54
2021/12/25 00:15:40;;;;;;;1.65;0.85;;;;;;;;;;5033211;28;20377;-55
2021/12/25 00:18:06;;;;;;;0.70;0.57;;;;;;;;;;5025319;28;20030;-51
2021/12/25 00:20:32;;;;;;;1.30;0.80;;;;;;;;;;5026640;28;20065;-56
2021/12/25 00:23:00;;;;;;;1.48;0.60;;;;;;;;;;5029134;28;20112;-56
2021/12/25 00:25:26;;;;;;;1.95;0.65;;;;;;;;;;5035615;28;20033;-56
2021/12/25 00:30:45;;;;;;;1.02;0.60;;;;;;;;;;5024408;28;20048;-56
2021/12/25 00:36:04;;;;;;;1.52;0.60;;;;;;;;;;5022688;28;20069;-54
2021/12/25 00:38:31;;;;;;;1.13;0.75;;;;;;;;;;5034943;28;20093;-56
2021/12/25 00:40:57;;;;;;;0.95;0.63;;;;;;;;;;5026713;28;20038;-55
2021/12/25 00:43:24;;;;;;;1.27;0.60;;;;;;;;;;5035627;28;20057;-55
2021/12/25 00:45:50;;;;;;;0.68;0.52;;;;;;;;;;5034441;28;20064;-56
2021/12/25 00:48:16;;;;;;;1.00;0.70;;;;;;;;;;5037185;28;20143;-56
2021/12/25 00:50:42;;;;;;;0.93;0.63;;;;;;;;;;5030931;28;20155;-55
2021/12/25 00:53:08;;;;;;;1.02;0.63;;;;;;;;;;5038056;28;20115;-53
2021/12/25 00:55:34;;;;;;;3.65;0.77;;;;;;;;;;5037141;28;20580;-54
2021/12/25 00:58:00;;;;;;;1.98;0.70;;;;;;;;;;5039825;28;20398;-52
2021/12/25 01:00:26;;;;;;;1.77;0.70;;;;;;;;;;5032598;28;20108;-55
2021/12/25 01:02:52;;;;;;;6.10;1.00;;;;;;;;;;5029192;28;20116;-54
2021/12/25 01:05:18;;;;;;;0.98;0.80;;;;;;;;;;5024174;28;20029;-52
2021/12/25 01:07:45;;;;;;;0.98;0.70;;;;;;;;;;5032790;28;20041;-55
2021/12/25 01:10:15;;;;;;;1.52;0.98;;;;;;;;;;5029920;28;20025;-56
2021/12/25 01:12:55;;;;;;;3.05;1.00;;;;;;;;;;5024893;28;20026;-56
2021/12/25 01:15:28;;;;;;;1.77;0.80;;;;;;;;;;5032957;28;20029;-56
2021/12/25 01:20:58;;;;;;;1.67;0.73;;;;;;;;;;5031130;28;20041;-54
2021/12/25 01:26:33;;;;;;;2.92;0.85;;;;;;;;;;5027204;28;20406;-52
2021/12/25 01:34:52;;;;;;;2.92;1.02;;;;;;;;;;5028675;28;20044;-53
2021/12/25 01:37:18;;;;;;;1.27;0.60;;;;;;;;;;5035780;28;20046;-51
2021/12/25 01:39:52;;;;;;;1.15;0.75;;;;;;;;;;5031385;28;20029;-55
2021/12/25 01:47:52;;;;;;;1.33;0.85;;;;;;;;;;5031605;28;20119;-53
2021/12/25 01:50:20;;;;;;;1.85;0.73;;;;;;;;;;5038055;28;20059;-54
2021/12/25 01:52:47;;;;;;;2.30;0.85;;;;;;;;;;5035083;28;20105;-56
2021/12/25 01:55:15;;;;;;;2.00;0.85;;;;;;;;;;5040976;28;20475;-54
2021/12/25 01:57:41;;;;;;;0.95;0.70;;;;;;;;;;5035254;28;20140;-50
2021/12/25 02:00:10;;;;;;;0.93;0.55;;;;;;;;;;5027200;28;20035;-55
2021/12/25 02:02:36;;;;;;;1.00;0.80;;;;;;;;;;5026925;28;20029;-52
2021/12/25 02:05:04;;;;;;;1.35;0.90;;;;;;;;;;5039231;28;20056;-53
2021/12/25 02:07:30;;;;;;;0.80;0.80;;;;;;;;;;5042893;28;20040;-56
2021/12/25 02:09:56;;;;;;;2.38;0.80;;;;;;;;;;5046067;28;20529;-56
2021/12/25 02:12:22;;;;;;;1.98;0.80;;;;;;;;;;5037314;28;20029;-55
2021/12/25 02:14:49;;;;;;;1.25;0.68;;;;;;;;;;5043153;28;20036;-54
2021/12/25 02:17:26;;;;;;;1.15;0.98;;;;;;;;;;5031551;28;20064;-56
2021/12/25 02:20:10;;;;;;;1.05;0.77;;;;;;;;;;5024990;28;20022;-54
2021/12/25 02:22:36;;;;;;;4.03;0.93;;;;;;;;;;5044327;28;20032;-55
2021/12/25 02:25:02;;;;;;;0.70;0.70;;;;;;;;;;5029190;28;20522;-56
2021/12/25 02:27:28;;;;;;;3.30;0.82;;;;;;;;;;5023182;28;20065;-56
2021/12/25 02:29:55;;;;;;;0.88;0.70;;;;;;;;;;5019947;28;20037;-55
2021/12/25 02:32:21;;;;;;;1.35;0.90;;;;;;;;;;5030100;28;20076;-54
2021/12/25 02:34:47;;;;;;;2.47;0.73;;;;;;;;;;5030620;28;20065;-54
2021/12/25 02:37:13;;;;;;;1.23;0.80;;;;;;;;;;5028150;28;20029;-54
2021/12/25 02:39:39;;;;;;;0.90;0.80;;;;;;;;;;5024742;28;20115;-56
2021/12/25 02:42:05;;;;;;;1.95;0.70;;;;;;;;;;5026243;28;20172;-55
2021/12/25 02:44:31;;;;;;;0.80;0.68;;;;;;;;;;5021427;28;20448;-52
2021/12/25 02:47:05;;;;;;;1.17;0.70;;;;;;;;;;5026996;28;20032;-53
2021/12/25 02:49:31;;;;;;;2.15;1.08;;;;;;;;;;5024090;28;20033;-54
2021/12/25 02:51:57;;;;;;;0.77;0.77;;;;;;;;;;5025449;28;20038;-51
2021/12/25 02:54:23;;;;;;;1.33;1.00;;;;;;;;;;5029784;28;20058;-53
2021/12/25 02:56:49;;;;;;;1.17;0.80;;;;;;;;;;5033700;28;20091;-57
2021/12/25 02:59:15;;;;;;;1.35;0.80;;;;;;;;;;5033342;28;20097;-53
2021/12/25 03:01:42;;;;;;;1.92;0.90;;;;;;;;;;5021187;28;20030;-54
2021/12/25 03:04:08;;;;;;;0.60;0.60;;;;;;;;;;5030109;28;20136;-55
2021/12/25 03:06:37;;;;;;;1.33;0.77;;;;;;;;;;5040459;28;20512;-52
2021/12/25 03:09:05;;;;;;;1.63;0.70;;;;;;;;;;5043435;28;20727;-55
2021/12/25 03:11:31;;;;;;;3.13;1.00;;;;;;;;;;5034168;28;20036;-51
2021/12/25 03:14:00;;;;;;;3.53;1.00;;;;;;;;;;5034567;28;20026;-51
2021/12/25 03:16:26;;;;;;;2.70;0.90;;;;;;;;;;5033410;28;20033;-51
2021/12/25 03:18:55;;;;;;;3.42;0.90;;;;;;;;;;5034344;28;20099;-53
2021/12/25 03:21:21;;;;;;;2.80;1.05;;;;;;;;;;5036021;28;20049;-55
2021/12/25 03:23:48;;;;;;;1.05;0.95;;;;;;;;;;5035111;28;20025;-56
2021/12/25 03:26:14;;;;;;;1.08;0.93;;;;;;;;;;5030873;28;20440;-56
2021/12/25 03:28:43;;;;;;;2.78;1.17;;;;;;;;;;5032544;28;20067;-54
2021/12/25 03:31:16;;;;;;;2.47;1.23;;;;;;;;;;5030371;28;20045;-56
2021/12/25 03:33:42;;;;;;;0.98;0.88;;;;;;;;;;5029084;28;20065;-54
2021/12/25 03:36:08;;;;;;;1.15;1.05;;;;;;;;;;5027778;28;20379;-56
2021/12/25 03:38:34;;;;;;;1.50;0.80;;;;;;;;;;5031994;28;20029;-56
2021/12/25 03:41:00;;;;;;;5.18;0.90;;;;;;;;;;5033732;28;20029;-52
2021/12/25 03:43:26;;;;;;;1.58;0.98;;;;;;;;;;5027241;28;20037;-55
2021/12/25 03:45:53;;;;;;;2.78;1.73;;;;;;;;;;5029143;28;20064;-55
2021/12/25 03:57:36;;;;;;;7.53;2.55;;;;;;;;;;5023924;28;20041;-54
2021/12/25 03:59:09;;;;;;;3.80;1.95;;;;;;;;;;5040486;28;20094;-56
2021/12/25 04:04:14;;;;;;;3.38;2.10;;;;;;;;;;5040978;28;20040;-52
2021/12/25 04:06:46;;;;;;;4.35;1.45;;;;;;;;;;5030388;28;20037;-55
2021/12/25 04:09:27;;;;;;;3.20;1.90;;;;;;;;;;5037636;28;20447;-55
2021/12/25 04:11:53;;;;;;;3.30;1.80;;;;;;;;;;5038147;28;20033;-56
2021/12/25 04:14:20;;;;;;;1.88;1.33;;;;;;;;;;5036241;28;20404;-55
2021/12/25 04:16:46;;;;;;;3.05;1.15;;;;;;;;;;5031628;28;20026;-54
2021/12/25 04:19:12;;;;;;;1.35;1.05;;;;;;;;;;5033044;28;20109;-56
2021/12/25 04:21:47;;;;;;;1.95;1.42;;;;;;;;;;5036062;28;20033;-52
2021/12/25 04:24:13;;;;;;;3.55;1.15;;;;;;;;;;5033308;28;20061;-52
2021/12/25 04:26:42;;;;;;;2.35;1.08;;;;;;;;;;5037562;28;20036;-53
2021/12/25 04:29:33;;;;;;;3.40;1.05;;;;;;;;;;5030050;28;20025;-56
2021/12/25 05:01:52;;;;;;;1.05;0.73;;;;;;;;;;5034451;28;20084;-54
2021/12/25 05:04:24;;;;;;;1.40;0.88;;;;;;;;;;5033470;28;20037;-51
2021/12/25 05:06:50;;;;;;;2.15;1.00;;;;;;;;;;5035961;28;20032;-52
2021/12/25 05:09:17;;;;;;;0.95;0.80;;;;;;;;;;5036110;28;20037;-55
2021/12/25 05:11:43;;;;;;;2.08;1.00;;;;;;;;;;5037554;28;20029;-52
2021/12/25 05:14:09;;;;;;;1.70;0.70;;;;;;;;;;5034360;28;20026;-53
2021/12/25 05:16:35;;;;;;;1.33;0.90;;;;;;;;;;5039087;28;20024;-55
2021/12/25 05:19:01;;;;;;;2.83;0.80;;;;;;;;;;5037480;28;20484;-51
2021/12/25 05:21:27;;;;;;;1.52;0.98;;;;;;;;;;5033501;28;20030;-55
2021/12/25 05:23:53;;;;;;;1.15;0.82;;;;;;;;;;5038983;28;20099;-55
2021/12/25 05:26:19;;;;;;;0.73;0.68;;;;;;;;;;5031974;28;20040;-55
2021/12/25 05:28:56;;;;;;;0.60;0.57;;;;;;;;;;5024570;28;20029;-56
2021/12/25 05:31:22;;;;;;;1.23;0.82;;;;;;;;;;5026832;28;20087;-53
2021/12/25 05:33:48;;;;;;;1.85;1.10;;;;;;;;;;5032779;28;20034;-55
2021/12/25 05:36:14;;;;;;;1.85;0.80;;;;;;;;;;5028672;28;20069;-54
2021/12/25 05:38:40;;;;;;;2.65;0.80;;;;;;;;;;5030236;28;20025;-55
2021/12/25 05:41:06;;;;;;;2.65;1.05;;;;;;;;;;5032883;28;20040;-57
2021/12/25 05:43:32;;;;;;;2.20;1.05;;;;;;;;;;5036779;28;20065;-54
2021/12/25 05:45:58;;;;;;;2.63;1.30;;;;;;;;;;5035372;28;20072;-55
2021/12/25 05:48:24;;;;;;;4.32;1.60;;;;;;;;;;5034132;28;20037;-54
2021/12/25 05:50:50;;;;;;;0.90;0.82;;;;;;;;;;5028288;28;20041;-54
2021/12/25 05:53:16;;;;;;;2.22;1.20;;;;;;;;;;5038401;28;20025;-55
2021/12/25 05:55:42;;;;;;;4.15;1.00;;;;;;;;;;5038351;28;20047;-57
2021/12/25 05:58:09;;;;;;;2.05;1.02;;;;;;;;;;5036437;28;20429;-56
2021/12/25 06:00:37;;;;;;;3.15;1.58;;;;;;;;;;5033233;28;20100;-54
2021/12/25 06:03:03;;;;;;;4.55;1.88;;;;;;;;;;5039346;28;20111;-52
2021/12/25 06:05:30;;;;;;;3.00;1.63;;;;;;;;;;5033274;28;20040;-57
2021/12/25 06:07:56;;;;;;;2.63;1.52;;;;;;;;;;5040409;28;20025;-55
2021/12/25 06:10:22;;;;;;;4.07;2.20;;;;;;;;;;5026090;28;20029;-56
2021/12/25 06:12:49;;;;;;;6.35;2.90;;;;;;;;;;5036928;28;20059;-55
2021/12/25 06:15:19;;;;;;;5.55;2.75;;;;;;;;;;5027839;28;20037;-55
2021/12/25 06:17:45;;;;;;;3.47;2.20;;;;;;;;;;5039053;28;20150;-54
2021/12/25 06:20:12;;;;;;;2.92;1.98;;;;;;;;;;5031798;28;20553;-53
2021/12/25 06:22:37;;;;;;;6.63;2.88;;;;;;;;;;5041637;28;20033;-55
2021/12/25 06:25:04;;;;;;;3.47;2.00;;;;;;;;;;5030973;28;20374;-54
2021/12/25 06:27:30;;;;;;;4.30;2.03;;;;;;;;;;5034676;28;20083;-55
2021/12/25 06:29:56;;;;;;;4.15;1.80;;;;;;;;;;5031304;28;20030;-53
2021/12/25 06:32:23;;;;;;;4.43;2.72;;;;;;;;;;5036837;28;20036;-54
2021/12/25 06:34:49;;;;;;;2.83;1.65;;;;;;;;;;5028916;28;20049;-50
2021/12/25 06:37:16;;;;;;;5.30;2.08;;;;;;;;;;5033518;28;20179;-56
2021/12/25 06:39:42;;;;;;;3.97;2.17;;;;;;;;;;5029596;28;20105;-52
2021/12/25 06:42:09;;;;;;;3.47;1.90;;;;;;;;;;5029595;28;20056;-54
2021/12/25 06:44:35;;;;;;;3.90;1.92;;;;;;;;;;5028789;28;20083;-56
2021/12/25 06:47:01;;;;;;;5.13;2.10;;;;;;;;;;5035093;28;20101;-56
2021/12/25 06:49:28;;;;;;;2.80;1.38;;;;;;;;;;5035679;28;20474;-53
2021/12/25 06:51:54;;;;;;;3.45;1.73;;;;;;;;;;5035784;28;20421;-56
2021/12/25 06:54:20;;;;;;;1.98;1.38;;;;;;;;;;5032767;28;20083;-55
2021/12/25 06:56:47;;;;;;;5.88;1.20;;;;;;;;;;5027283;28;20112;-53
2021/12/25 06:59:14;;;;;;;2.97;1.40;;;;;;;;;;5035758;28;20009;-53
2021/12/25 07:01:40;;;;;;;2.67;1.30;;;;;;;;;;5025240;28;20034;-54
2021/12/25 07:04:07;;;;;;;3.40;1.10;;;;;;;;;;5035104;28;20499;-51
2021/12/25 07:06:33;;;;;;;2.53;1.35;;;;;;;;;;5035108;28;20053;-54
2021/12/25 07:08:59;;;;;;;2.22;1.27;;;;;;;;;;5036853;28;20033;-56
2021/12/25 07:11:25;;;;;;;3.08;1.48;;;;;;;;;;5034996;28;20664;-57
2021/12/25 07:13:52;;;;;;;2.72;1.50;;;;;;;;;;5034213;28;20074;-54
2021/12/25 07:16:18;;;;;;;4.90;1.52;;;;;;;;;;5033678;28;20036;-55
2021/12/25 07:18:44;;;;;;;5.40;1.83;;;;;;;;;;5037998;28;20095;-55
2021/12/25 07:21:10;;;;;;;3.03;1.70;;;;;;;;;;5029466;28;20121;-54
2021/12/25 07:23:36;;;;;;;5.85;2.28;;;;;;;;;;5025034;28;20080;-55
2021/12/25 07:26:02;;;;;;;5.53;2.83;;;;;;;;;;5029350;28;20088;-54
2021/12/25 07:28:28;;;;;;;15.55;3.95;;;;;;;;;;5027363;28;20143;-55
2021/12/25 07:30:56;;;;;;;6.50;2.75;;;;;;;;;;5029198;28;20030;-52
2021/12/25 07:33:22;;;;;;;6.50;2.95;;;;;;;;;;5035730;28;20021;-54
2021/12/25 07:35:48;;;;;;;3.17;1.65;;;;;;;;;;5030116;28;20049;-57
2021/12/25 07:38:18;;;;;;;2.65;1.35;;;;;;;;;;5037594;28;20030;-56
2021/12/25 07:40:44;;;;;;;4.53;1.90;;;;;;;;;;5042026;28;20035;-55
2021/12/25 07:43:10;;;;;;;3.58;1.50;;;;;;;;;;5040287;28;20085;-57
2021/12/25 07:45:37;;;;;;;1.58;1.05;;;;;;;;;;5034202;28;20080;-55
2021/12/25 07:48:03;;;;;;;2.42;1.35;;;;;;;;;;5036883;28;20026;-56
2021/12/25 07:50:31;;;;;;;2.97;1.50;;;;;;;;;;5039081;28;20038;-55
2021/12/25 07:52:58;;;;;;;3.78;1.73;;;;;;;;;;5035313;28;20380;-54
2021/12/25 07:55:24;;;;;;;2.30;1.30;;;;;;;;;;5030968;28;20025;-57
2021/12/25 07:57:50;;;;;;;3.53;1.40;;;;;;;;;;5037199;28;20469;-55
2021/12/25 08:00:17;;;;;;;3.08;1.55;;;;;;;;;;5025210;28;20210;-56
2021/12/25 08:02:44;;;;;;;2.15;1.60;;;;;;;;;;5035149;28;20052;-56
2021/12/25 08:05:11;;;;;;;2.47;1.80;;;;;;;;;;5046244;28;20036;-56
2021/12/25 08:07:37;;;;;;;1.83;1.33;;;;;;;;;;5035008;28;20037;-54
2021/12/25 08:10:13;;;;;;;1.58;1.48;;;;;;;;;;5033777;28;20033;-55
2021/12/25 08:12:43;;;;;;;1.50;1.13;;;;;;;;;;5037113;28;20022;-55
2021/12/25 08:15:10;;;;;;;1.88;1.17;;;;;;;;;;5031512;28;20025;-54
2021/12/25 08:17:36;;;;;;;1.45;1.10;;;;;;;;;;5036935;28;20036;-53
2021/12/25 08:20:03;;;;;;;2.85;1.00;;;;;;;;;;5038390;28;20047;-52
2021/12/25 08:22:28;;;;;;;4.13;1.90;;;;;;;;;;5033283;28;20470;-53
2021/12/25 08:24:54;;;;;;;4.68;1.52;;;;;;;;;;5039325;28;20030;-54
2021/12/25 08:27:20;;;;;;;4.65;1.75;;;;;;;;;;5035241;28;20033;-55
2021/12/25 08:29:46;;;;;;;2.78;1.15;;;;;;;;;;5030984;28;20018;-57
2021/12/25 08:32:12;;;;;;;3.95;1.60;;;;;;;;;;5023419;28;20155;-54
2021/12/25 08:34:40;;;;;;;2.55;1.40;;;;;;;;;;5030582;28;20148;-57
2021/12/25 08:37:06;;;;;;;1.92;1.27;;;;;;;;;;5027981;28;20113;-56
2021/12/25 08:39:32;;;;;;;2.92;1.70;;;;;;;;;;5029537;28;20044;-55
2021/12/25 08:42:03;;;;;;;4.05;2.15;;;;;;;;;;5034609;28;20033;-57
2021/12/25 08:44:53;;;;;;;3.70;1.60;;;;;;;;;;5031634;28;20026;-56
2021/12/25 08:47:19;;;;;;;2.08;1.20;;;;;;;;;;5034623;28;20543;-56
2021/12/25 08:49:45;;;;;;;2.50;1.30;;;;;;;;;;5031076;28;20030;-55
2021/12/25 08:52:16;;;;;;;1.77;1.25;;;;;;;;;;5036129;28;20249;-57
2021/12/25 08:54:43;;;;;;;2.05;1.40;;;;;;;;;;5032160;28;20105;-56
2021/12/25 08:57:09;;;;;;;2.00;1.20;;;;;;;;;;5035349;28;20469;-57
2021/12/25 08:59:36;;;;;;;2.33;1.30;;;;;;;;;;5028947;28;20039;-55
2021/12/25 09:02:05;;;;;;;1.90;1.23;;;;;;;;;;5031384;28;20052;-54
2021/12/25 09:04:31;;;;;;;2.53;1.10;;;;;;;;;;5025092;28;20161;-56
2021/12/25 09:06:57;;;;;;;1.38;1.02;;;;;;;;;;5027998;28;20028;-54
2021/12/25 09:09:23;;;;;;;1.50;1.00;;;;;;;;;;5024274;28;20025;-56
2021/12/25 09:11:49;;;;;;;3.85;1.35;;;;;;;;;;5032824;28;20040;-56
2021/12/25 09:14:15;;;;;;;4.03;1.45;;;;;;;;;;5029424;28;20033;-53
2021/12/25 09:16:41;;;;;;;4.10;2.17;;;;;;;;;;5034023;28;20029;-54
2021/12/25 09:19:07;;;;;;;3.80;1.85;;;;;;;;;;5033610;28;20128;-54
2021/12/25 09:21:33;;;;;;;1.63;1.17;;;;;;;;;;5033226;28;20029;-52
2021/12/25 09:23:59;;;;;;;2.42;0.90;;;;;;;;;;5030684;28;20032;-56
2021/12/25 09:26:25;;;;;;;2.67;1.42;;;;;;;;;;5027224;28;20029;-54
2021/12/25 09:28:51;;;;;;;3.15;1.67;;;;;;;;;;5027089;28;20103;-55
2021/12/25 09:31:17;;;;;;;1.60;1.20;;;;;;;;;;5032889;28;20033;-56
2021/12/25 09:33:43;;;;;;;4.07;1.20;;;;;;;;;;5027535;28;20021;-55
2021/12/25 09:36:09;;;;;;;3.60;1.13;;;;;;;;;;5029064;28;20057;-55
2021/12/25 09:38:36;;;;;;;3.63;1.10;;;;;;;;;;5031068;28;20025;-55
2021/12/25 09:41:03;;;;;;;4.35;1.00;;;;;;;;;;5033924;28;20572;-55
2021/12/25 09:43:29;;;;;;;3.58;1.08;;;;;;;;;;5033196;28;20032;-57
2021/12/25 09:45:56;;;;;;;1.67;1.08;;;;;;;;;;5029468;28;20040;-55
2021/12/25 09:48:22;;;;;;;1.20;0.85;;;;;;;;;;5033349;28;20040;-57
2021/12/25 09:50:48;;;;;;;1.88;1.15;;;;;;;;;;5024765;28;20034;-53
2021/12/25 09:53:15;;;;;;;3.78;1.27;;;;;;;;;;5034824;28;20026;-55
2021/12/25 09:55:42;;;;;;;4.03;1.40;;;;;;;;;;5028663;28;20025;-56
2021/12/25 09:58:08;;;;;;;2.03;0.90;;;;;;;;;;5031853;28;20083;-56
2021/12/25 10:00:39;;;;;;;5.20;1.25;;;;;;;;;;5031214;28;20397;-57
2021/12/25 10:03:06;;;;;;;5.03;1.00;;;;;;;;;;5031193;28;20101;-54
2021/12/25 10:05:33;;;;;;;1.48;1.00;;;;;;;;;;5037521;28;20060;-56
2021/12/25 10:08:08;;;;;;;3.33;1.13;;;;;;;;;;5034017;28;20095;-54
2021/12/25 10:10:45;;;;;;;1.48;1.10;;;;;;;;;;5032816;28;20036;-55
2021/12/25 10:13:25;;;;;;;4.47;0.98;;;;;;;;;;5032365;28;20030;-55
2021/12/25 10:15:56;;;;;;;1.98;0.70;;;;;;;;;;5023805;28;20029;-52
2021/12/25 10:18:26;;;;;;;1.48;0.90;;;;;;;;;;5022566;28;20347;-53
2021/12/25 10:20:52;;;;;;;2.35;1.10;;;;;;;;;;5032942;28;20061;-53
2021/12/25 10:23:25;;;;;;;1.00;0.70;;;;;;;;;;5034377;28;20064;-55
2021/12/25 10:25:55;;;;;;;3.42;1.20;;;;;;;;;;5032490;28;20040;-56
2021/12/25 10:28:32;;;;;;;1.00;0.90;;;;;;;;;;5028534;28;20056;-54
2021/12/25 10:31:00;;;;;;;1.65;0.90;;;;;;;;;;5029477;28;21687;-56
2021/12/25 10:33:30;;;;;;;3.20;1.00;;;;;;;;;;5028194;28;20039;-54
2021/12/25 10:35:59;;;;;;;2.30;0.90;;;;;;;;;;5030344;28;20514;-56
2021/12/25 10:38:25;;;;;;;0.98;0.82;;;;;;;;;;5029676;28;20041;-56
2021/12/25 10:41:08;;;;;;;1.50;0.90;;;;;;;;;;5027499;28;20025;-55
2021/12/25 10:43:40;;;;;;;1.33;0.88;;;;;;;;;;5026632;28;20045;-56
2021/12/25 10:46:06;;;;;;;2.55;0.90;;;;;;;;;;5029924;28;20040;-56
2021/12/25 10:48:32;;;;;;;3.00;0.80;;;;;;;;;;5027336;28;20030;-57
2021/12/25 10:50:59;;;;;;;1.17;0.85;;;;;;;;;;5026470;28;20044;-55
2021/12/25 10:53:30;;;;;;;1.25;0.80;;;;;;;;;;5030708;28;20106;-57
2021/12/25 10:56:07;;;;;;;3.92;1.45;;;;;;;;;;5030216;28;20021;-55
2021/12/25 10:58:34;;;;;;;1.83;0.93;;;;;;;;;;5022591;28;20022;-55
2021/12/25 11:01:00;;;;;;;3.70;1.02;;;;;;;;;;5016621;28;20538;-55
2021/12/25 11:03:27;;;;;;;2.63;0.90;;;;;;;;;;5029774;28;20068;-56
2021/12/25 11:05:53;;;;;;;2.13;0.80;;;;;;;;;;5025039;28;20034;-56
2021/12/25 11:08:23;;;;;;;1.50;0.93;;;;;;;;;;5030840;28;20026;-57
2021/12/25 11:10:53;;;;;;;1.15;0.70;;;;;;;;;;5031877;28;20025;-58
2021/12/25 11:13:26;;;;;;;2.58;0.60;;;;;;;;;;5029080;28;20069;-57
2021/12/25 11:16:01;;;;;;;1.60;0.57;;;;;;;;;;5024346;28;20022;-54
2021/12/25 11:18:27;;;;;;;1.15;0.43;;;;;;;;;;5031595;28;20045;-58
2021/12/25 11:20:53;;;;;;;1.23;0.40;;;;;;;;;;5032080;28;20545;-57
2021/12/25 11:23:21;;;;;;;1.85;0.50;;;;;;;;;;5033180;28;20038;-57
2021/12/25 11:25:47;;;;;;;1.25;0.60;;;;;;;;;;5029638;28;20033;-59
2021/12/25 11:28:14;;;;;;;1.45;0.55;;;;;;;;;;5021721;28;20029;-57
2021/12/25 11:30:45;;;;;;;0.63;0.40;;;;;;;;;;5027379;28;20036;-58
2021/12/25 11:33:11;;;;;;;1.15;0.40;;;;;;;;;;5029291;28;20028;-59
2021/12/25 11:35:38;;;;;;;2.90;0.60;;;;;;;;;;5027222;28;20124;-57
2021/12/25 11:38:05;;;;;;;5.18;1.83;;;;;;;;;;5026078;28;20111;-58
2021/12/25 11:40:38;;;;;;;0.70;0.50;;;;;;;;;;5033312;28;20033;-59
2021/12/25 11:43:04;;;;;;;1.73;0.63;;;;;;;;;;5033426;28;20028;-55
2021/12/25 11:45:36;;;;;;;4.82;1.45;;;;;;;;;;5032809;28;20072;-58
2021/12/25 11:48:13;;;;;;;4.07;1.38;;;;;;;;;;5032971;28;20106;-57
2021/12/25 11:50:42;;;;;;;2.28;0.82;;;;;;;;;;5031268;28;20021;-58
2021/12/25 11:53:41;;;;;;;2.88;0.60;;;;;;;;;;5032168;28;20393;-57
2021/12/25 11:56:47;;;;;;;1.33;1.00;;;;;;;;;;5026770;28;20033;-59
2021/12/25 11:59:14;;;;;;;1.45;0.63;;;;;;;;;;5024796;28;20064;-55
2021/12/25 12:01:41;;;;;;;1.52;0.73;;;;;;;;;;5033933;28;20533;-57
2021/12/25 12:04:10;;;;;;;1.38;0.85;;;;;;;;;;5033598;28;20044;-56
2021/12/25 12:06:48;;;;;;;1.15;0.65;;;;;;;;;;5034414;28;20104;-54
2021/12/25 12:09:18;;;;;;;2.22;0.90;;;;;;;;;;5033191;28;20053;-56
2021/12/25 12:11:46;;;;;;;1.77;0.70;;;;;;;;;;5033533;28;20052;-59
2021/12/25 12:14:18;;;;;;;2.20;0.52;;;;;;;;;;5033976;28;20022;-56
2021/12/25 12:16:55;;;;;;;1.45;0.68;;;;;;;;;;5033258;28;20036;-58
2021/12/25 12:19:34;;;;;;;0.70;0.43;;;;;;;;;;5036961;28;20108;-55
2021/12/25 12:22:01;;;;;;;2.55;0.60;;;;;;;;;;5036321;28;20021;-57
2021/12/25 12:24:44;;;;;;;2.80;0.68;;;;;;;;;;5036478;28;20056;-56
2021/12/25 12:27:10;;;;;;;1.90;0.50;;;;;;;;;;5035782;28;20033;-53
2021/12/25 12:29:39;;;;;;;0.82;0.60;;;;;;;;;;5033099;28;20096;-54
2021/12/25 12:32:06;;;;;;;1.80;0.40;;;;;;;;;;5032873;28;20112;-55
2021/12/25 12:34:36;;;;;;;1.40;0.55;;;;;;;;;;5036875;28;20119;-53
2021/12/25 12:37:14;;;;;;;1.73;0.65;;;;;;;;;;5037568;28;20033;-55
2021/12/25 12:40:04;;;;;;;0.85;0.40;;;;;;;;;;5037900;28;20513;-51
2021/12/25 12:42:47;;;;;;;2.05;0.50;;;;;;;;;;5028163;28;20037;-53
2021/12/25 12:45:13;;;;;;;;;;;;;;;;;;5039205;28;20420;-53
2021/12/25 12:47:40;;;;;;;2.20;0.82;;;;;;;;;;5038332;28;19919;-52
2021/12/25 12:50:06;;;;;;;2.03;0.85;;;;;;;;;;5038163;28;20093;-56
2021/12/25 12:52:39;;;;;;;3.83;0.65;;;;;;;;;;5037684;28;20097;-53
2021/12/25 12:55:11;;;;;;;1.33;0.77;;;;;;;;;;5038328;28;20021;-56
2021/12/25 12:57:41;;;;;;;2.47;0.93;;;;;;;;;;5037683;28;20382;-52
2021/12/25 13:00:10;;;;;;;1.17;0.80;;;;;;;;;;5035228;28;20113;-58
2021/12/25 13:02:40;;;;;;;2.63;0.98;;;;;;;;;;5036314;28;20017;-58
2021/12/25 13:05:07;;;;;;;3.15;1.15;;;;;;;;;;5036495;28;20481;-57
2021/12/25 13:07:35;;;;;;;2.33;0.90;;;;;;;;;;5036206;28;20022;-58
2021/12/25 13:10:37;;;;;;;1.80;1.00;;;;;;;;;;5035915;28;20053;-55
2021/12/25 13:13:08;;;;;;;4.05;0.90;;;;;;;;;;5035640;28;20026;-58
2021/12/25 13:15:34;;;;;;;2.72;0.82;;;;;;;;;;5036989;28;20037;-57
2021/12/25 13:18:03;;;;;;;1.25;0.60;;;;;;;;;;5039451;28;20017;-58
2021/12/25 13:20:52;;;;;;;3.22;0.90;;;;;;;;;;5041352;28;20029;-58
2021/12/25 13:23:28;;;;;;;2.80;1.15;;;;;;;;;;5029909;28;20560;-58
2021/12/25 13:25:59;;;;;;;1.90;1.20;;;;;;;;;;5038707;28;20024;-56
2021/12/25 13:28:26;;;;;;;2.00;1.05;;;;;;;;;;5032169;28;20024;-58
2021/12/25 13:30:55;;;;;;;1.58;1.20;;;;;;;;;;5034880;28;20057;-58
2021/12/25 13:33:23;;;;;;;1.77;0.80;;;;;;;;;;5030898;28;20018;-56
2021/12/25 13:35:58;;;;;;;1.50;0.82;;;;;;;;;;5035658;28;20102;-57
2021/12/25 13:38:24;;;;;;;3.05;0.70;;;;;;;;;;5032356;28;20164;-52
2021/12/25 13:40:51;;;;;;;1.65;0.85;;;;;;;;;;5034395;28;21623;-56
2021/12/25 13:43:18;;;;;;;3.30;1.00;;;;;;;;;;5037424;28;20036;-57
2021/12/25 13:45:44;;;;;;;2.83;1.42;;;;;;;;;;5032583;28;20113;-54
2021/12/25 13:48:10;;;;;;;3.67;2.20;;;;;;;;;;5039734;28;20025;-55
2021/12/25 13:50:36;;;;;;;2.70;1.63;;;;;;;;;;5031910;28;20342;-54
2021/12/25 13:53:06;;;;;;;1.30;0.70;;;;;;;;;;5033934;28;20021;-55
2021/12/25 13:55:33;;;;;;;0.82;0.55;;;;;;;;;;5037847;28;20030;-56
2021/12/25 13:58:01;;;;;;;1.00;0.90;;;;;;;;;;5036816;28;20028;-55
2021/12/25 14:00:29;;;;;;;0.70;0.55;;;;;;;;;;5033448;28;20044;-55
2021/12/25 14:02:57;;;;;;;2.53;1.17;;;;;;;;;;5043488;28;20064;-56
2021/12/25 14:05:25;;;;;;;4.25;0.88;;;;;;;;;;5039460;28;20105;-54
2021/12/25 14:07:51;;;;;;;0.68;0.68;;;;;;;;;;5045327;28;20049;-55
2021/12/25 14:10:21;;;;;;;3.85;1.50;;;;;;;;;;5041947;28;20025;-55
2021/12/25 14:12:49;;;;;;;3.42;1.58;;;;;;;;;;5041932;28;20032;-55
2021/12/25 14:15:17;;;;;;;0.90;0.70;;;;;;;;;;5043668;28;20098;-55
2021/12/25 14:17:44;;;;;;;0.90;0.63;;;;;;;;;;5046172;28;20031;-56
2021/12/25 14:20:20;;;;;;;3.15;1.08;;;;;;;;;;5043318;28;20029;-56
2021/12/25 14:22:48;;;;;;;2.55;0.60;;;;;;;;;;5042922;28;20406;-56
2021/12/25 14:25:20;;;;;;;3.13;1.08;;;;;;;;;;5042052;28;20407;-56
2021/12/25 14:27:47;;;;;;;3.55;0.88;;;;;;;;;;5037474;28;20026;-56
2021/12/25 14:30:13;;;;;;;4.03;1.25;;;;;;;;;;5027447;28;20373;-54
2021/12/25 14:32:47;;;;;;;1.90;0.77;;;;;;;;;;5032691;28;20021;-55
2021/12/25 14:35:18;;;;;;;2.05;1.10;;;;;;;;;;5031900;28;20049;-52
2021/12/25 14:37:44;;;;;;;4.13;0.75;;;;;;;;;;5033386;28;20416;-53
2021/12/25 14:40:20;;;;;;;1.90;0.75;;;;;;;;;;5034103;28;20029;-55
2021/12/25 14:42:48;;;;;;;1.45;0.88;;;;;;;;;;5036248;28;20028;-56
2021/12/25 14:45:15;;;;;;;1.55;0.93;;;;;;;;;;5035321;28;20379;-54
2021/12/25 14:47:51;;;;;;;1.10;0.75;;;;;;;;;;5038720;28;20030;-56
2021/12/25 14:50:19;;;;;;;1.63;0.73;;;;;;;;;;5036077;28;20033;-55
2021/12/25 14:52:45;;;;;;;5.80;1.02;;;;;;;;;;5038435;28;20049;-52
2021/12/25 14:55:15;;;;;;;4.15;1.45;;;;;;;;;;5037451;28;20108;-55
2021/12/25 14:57:41;;;;;;;6.63;2.33;;;;;;;;;;5030219;28;20539;-55
2021/12/25 15:00:08;;;;;;;4.53;1.95;;;;;;;;;;5038136;28;20032;-55
2021/12/25 15:02:34;;;;;;;5.70;1.90;;;;;;;;;;5040984;28;20040;-54
2021/12/25 15:05:00;;;;;;;2.25;1.27;;;;;;;;;;5038375;28;20030;-52
2021/12/25 15:07:26;;;;;;;2.80;1.55;;;;;;;;;;5043211;28;20029;-51
2021/12/25 15:09:53;;;;;;;2.90;1.50;;;;;;;;;;5041510;28;20374;-52
2021/12/25 15:12:21;;;;;;;3.35;1.00;;;;;;;;;;5043914;28;20020;-52
2021/12/25 15:14:51;;;;;;;3.03;0.90;;;;;;;;;;5040437;28;20029;-52
2021/12/25 15:17:20;;;;;;;2.50;0.98;;;;;;;;;;5031903;28;20454;-51
2021/12/25 15:19:47;;;;;;;2.17;1.02;;;;;;;;;;5043731;28;20033;-54
2021/12/25 15:22:18;;;;;;;1.55;1.00;;;;;;;;;;5042639;28;20406;-53
2021/12/25 15:24:51;;;;;;;1.48;0.77;;;;;;;;;;5044277;28;20028;-51
2021/12/25 15:27:27;;;;;;;1.70;1.35;;;;;;;;;;5028299;28;20120;-54
2021/12/25 15:29:55;;;;;;;4.65;1.80;;;;;;;;;;5031810;28;20054;-55
2021/12/25 15:32:21;;;;;;;3.05;1.00;;;;;;;;;;5031132;28;20029;-56
2021/12/25 15:34:55;;;;;;;3.42;1.58;;;;;;;;;;5032062;28;20124;-56
2021/12/25 15:37:25;;;;;;;4.15;2.20;;;;;;;;;;5033251;28;20457;-56
2021/12/25 15:39:53;;;;;;;5.30;2.42;;;;;;;;;;5033721;28;20108;-56
2021/12/25 15:42:19;;;;;;;5.38;2.25;;;;;;;;;;5035058;28;20470;-56
2021/12/25 15:44:45;;;;;;;3.65;2.10;;;;;;;;;;5032442;28;20029;-56
2021/12/25 15:47:11;;;;;;;3.33;1.73;;;;;;;;;;5034708;28;20057;-54
2021/12/25 15:49:37;;;;;;;4.68;2.33;;;;;;;;;;5034258;28;20037;-52
2021/12/25 15:52:04;;;;;;;5.10;1.58;;;;;;;;;;5037892;28;20461;-55
2021/12/25 15:54:30;;;;;;;3.80;2.00;;;;;;;;;;5039659;28;20151;-56